Time;durP1;ratioP1;P1;durP2;ratioP2;P2;SDS_P1;SDS_P2;PMS_P1;PMS_P2;Temp;Humidity;BMP_temperature;BMP_pressure;BME280_temperature;BME280_humidity;BME280_pressure;Samples;Min_cycle;Max_cycle;Signal;HPM_P1;HPM_P2
2023/02/15 00:01:11;;;;;;;29.33;22.30;;;3.20;99.90;;;;;;5034862;28;20605;-70
2023/02/15 00:03:37;;;;;;;24.93;19.40;;;3.10;99.90;;;;;;5033752;28;20255;-71
2023/02/15 00:06:04;;;;;;;29.00;21.47;;;3.20;99.90;;;;;;5035020;28;20528;-70
2023/02/15 00:08:30;;;;;;;26.30;20.80;;;3.10;99.90;;;;;;5034868;28;20281;-71
2023/02/15 00:11:05;;;;;;;25.17;20.33;;;3.10;99.90;;;;;;5034902;28;20779;-71
2023/02/15 00:13:31;;;;;;;27.93;20.13;;;3.10;99.90;;;;;;5034640;28;20468;-71
2023/02/15 00:16:05;;;;;;;28.00;21.63;;;3.00;99.90;;;;;;5034707;28;20809;-71
2023/02/15 00:18:31;;;;;;;29.90;21.20;;;3.00;99.90;;;;;;5034515;28;20731;-71
2023/02/15 00:20:58;;;;;;;26.67;20.67;;;3.00;99.90;;;;;;5034538;28;20428;-71
2023/02/15 00:23:25;;;;;;;28.47;20.83;;;3.00;99.90;;;;;;5034824;28;20394;-71
2023/02/15 00:25:51;;;;;;;28.13;22.47;;;2.90;99.90;;;;;;5034385;28;20467;-71
2023/02/15 00:28:16;;;;;;;28.87;21.60;;;2.90;99.90;;;;;;5033932;28;20839;-71
2023/02/15 00:30:42;;;;;;;34.80;23.07;;;2.80;99.90;;;;;;5033966;28;20611;-71
2023/02/15 00:33:08;;;;;;;29.77;21.67;;;2.70;99.90;;;;;;5033042;28;20265;-71
2023/02/15 00:35:33;;;;;;;27.90;20.90;;;2.70;99.90;;;;;;5034035;28;20174;-71
2023/02/15 00:40:28;;;;;;;25.20;19.87;;;2.80;99.90;;;;;;5053859;23;20223;-72
2023/02/15 00:42:54;;;;;;;24.20;19.33;;;2.90;99.90;;;;;;5033980;28;20850;-72
2023/02/15 00:45:21;;;;;;;29.73;21.67;;;2.90;99.90;;;;;;5034006;28;20167;-74
2023/02/15 00:47:46;;;;;;;23.30;19.63;;;2.90;99.90;;;;;;5033751;28;20161;-74
2023/02/15 00:50:12;;;;;;;22.80;18.30;;;2.90;99.90;;;;;;5026518;28;20437;-73
2023/02/15 00:52:37;;;;;;;26.10;19.60;;;2.90;99.90;;;;;;5013928;28;20701;-74
2023/02/15 00:55:03;;;;;;;24.40;19.17;;;2.90;99.90;;;;;;5013676;28;20639;-74
2023/02/15 00:57:28;;;;;;;25.60;20.30;;;2.80;99.90;;;;;;5013932;28;20635;-74
2023/02/15 00:59:54;;;;;;;27.07;18.33;;;2.70;99.90;;;;;;5013599;28;20210;-73
2023/02/15 01:02:19;;;;;;;25.60;19.17;;;2.80;99.90;;;;;;5013770;28;20160;-73
2023/02/15 01:04:45;;;;;;;28.20;20.87;;;2.70;99.90;;;;;;5013615;28;20168;-73
2023/02/15 01:07:11;;;;;;;25.83;19.77;;;2.70;99.90;;;;;;5013609;28;20175;-73
2023/02/15 01:09:36;;;;;;;24.60;19.03;;;2.80;99.90;;;;;;5024466;28;20195;-73
2023/02/15 01:12:02;;;;;;;30.73;21.23;;;2.80;99.90;;;;;;5032055;28;20225;-74
2023/02/15 01:14:27;;;;;;;29.03;20.80;;;2.70;99.90;;;;;;5033396;28;20174;-74
2023/02/15 01:16:53;;;;;;;28.43;21.10;;;2.70;99.90;;;;;;5031933;28;20258;-74
2023/02/15 01:19:19;;;;;;;31.43;23.70;;;2.60;99.90;;;;;;5032938;28;20195;-73
2023/02/15 01:21:44;;;;;;;26.40;19.83;;;2.60;99.90;;;;;;5033209;28;20167;-74
2023/02/15 01:24:13;;;;;;;27.07;21.63;;;2.60;99.90;;;;;;5033104;28;20530;-73
2023/02/15 01:26:39;;;;;;;30.13;21.73;;;2.50;99.90;;;;;;5033293;28;20530;-74
2023/02/15 01:29:05;;;;;;;23.23;19.70;;;2.60;99.90;;;;;;5032620;28;20434;-74
2023/02/15 01:31:30;;;;;;;23.30;18.50;;;2.60;99.90;;;;;;5032658;28;20191;-74
2023/02/15 01:33:56;;;;;;;27.20;20.90;;;2.60;99.90;;;;;;5022774;28;20266;-74
2023/02/15 01:36:21;;;;;;;26.40;20.40;;;2.70;99.90;;;;;;5012770;28;20654;-75
2023/02/15 01:38:47;;;;;;;25.53;21.20;;;2.60;99.90;;;;;;5017588;28;20290;-74
2023/02/15 01:41:26;;;;;;;26.67;19.00;;;2.60;99.90;;;;;;5032901;28;20160;-74
2023/02/15 01:43:58;;;;;;;27.00;22.00;;;2.60;99.90;;;;;;5032827;28;20144;-74
2023/02/15 01:46:39;;;;;;;27.40;20.27;;;2.40;99.90;;;;;;5032727;28;20398;-73
2023/02/15 01:49:14;;;;;;;26.10;20.10;;;2.40;99.90;;;;;;5032906;28;20468;-74
2023/02/15 01:51:43;;;;;;;28.87;22.03;;;2.50;99.90;;;;;;5032299;28;20435;-74
2023/02/15 01:54:43;;;;;;;27.30;21.87;;;2.50;99.90;;;;;;5032323;28;20975;-74
2023/02/15 01:57:13;;;;;;;24.77;18.17;;;2.50;99.90;;;;;;5030057;28;20957;-74
2023/02/15 01:59:42;;;;;;;28.33;21.43;;;2.60;99.90;;;;;;5031878;28;20485;-74
2023/02/15 02:02:11;;;;;;;26.03;19.03;;;2.50;99.90;;;;;;5032198;28;20475;-72
2023/02/15 02:04:48;;;;;;;24.37;19.87;;;2.50;99.90;;;;;;5022945;28;20399;-72
2023/02/15 02:07:16;;;;;;;28.03;20.47;;;2.50;99.90;;;;;;5012792;28;20389;-73
2023/02/15 02:09:44;;;;;;;23.63;18.70;;;2.50;99.90;;;;;;5024590;28;20812;-73
2023/02/15 02:12:10;;;;;;;27.73;21.50;;;2.50;99.90;;;;;;5031282;28;20504;-74
2023/02/15 02:14:37;;;;;;;24.50;19.47;;;2.50;99.90;;;;;;5032451;28;20445;-74
2023/02/15 02:17:15;;;;;;;30.90;23.27;;;2.50;99.90;;;;;;5032746;28;20494;-74
2023/02/15 02:20:11;;;;;;;24.43;19.77;;;2.40;99.90;;;;;;5032415;28;20454;-74
2023/02/15 02:22:42;;;;;;;32.07;22.13;;;2.40;99.90;;;;;;5035888;28;20820;-74
2023/02/15 02:25:31;;;;;;;28.80;21.40;;;2.40;99.90;;;;;;5035916;28;20398;-74
2023/02/15 02:28:20;;;;;;;26.30;19.80;;;2.40;99.90;;;;;;5035408;28;20383;-73
2023/02/15 02:31:05;;;;;;;27.87;21.07;;;2.50;99.90;;;;;;5036099;28;20376;-75
2023/02/15 02:33:42;;;;;;;24.43;19.30;;;2.40;99.90;;;;;;5035909;28;20378;-73
2023/02/15 02:36:14;;;;;;;29.73;21.53;;;2.40;99.90;;;;;;5035872;28;20758;-73
2023/02/15 02:39:10;;;;;;;27.50;21.43;;;2.40;99.90;;;;;;5033845;28;20470;-73
2023/02/15 02:42:13;;;;;;;30.23;21.60;;;2.40;99.90;;;;;;5035809;28;20398;-73
2023/02/15 02:44:45;;;;;;;28.93;21.77;;;2.40;99.90;;;;;;5018629;28;20395;-73
2023/02/15 02:47:30;;;;;;;28.87;21.57;;;2.40;99.90;;;;;;5015947;28;20406;-73
2023/02/15 02:50:01;;;;;;;26.90;21.37;;;2.30;99.90;;;;;;5015656;28;20430;-73
2023/02/15 02:52:40;;;;;;;24.17;18.83;;;2.40;99.90;;;;;;5015850;28;20894;-74
2023/02/15 02:55:25;;;;;;;27.63;21.20;;;2.40;99.90;;;;;;5015604;28;20819;-74
2023/02/15 02:58:29;;;;;;;23.50;18.37;;;2.40;99.90;;;;;;5015760;28;20410;-74
2023/02/15 03:00:56;;;;;;;23.60;18.20;;;2.40;99.90;;;;;;5012728;28;20441;-74
2023/02/15 03:03:34;;;;;;;22.83;18.87;;;2.40;99.90;;;;;;5015902;28;20406;-74
2023/02/15 03:06:03;;;;;;;29.40;22.27;;;2.40;99.90;;;;;;5014330;28;20491;-74
2023/02/15 03:08:35;;;;;;;24.83;18.97;;;2.20;99.90;;;;;;5017894;28;20477;-73
2023/02/15 03:11:03;;;;;;;27.50;19.17;;;2.30;99.90;;;;;;5035016;28;20478;-73
2023/02/15 03:13:28;;;;;;;28.60;21.10;;;2.20;99.90;;;;;;5035611;28;20410;-73
2023/02/15 03:18:52;;;;;;;27.70;20.63;;;2.20;99.90;;;;;;5035392;28;20291;-74
2023/02/15 03:21:23;;;;;;;30.90;21.93;;;2.20;99.90;;;;;;5034647;28;20404;-75
2023/02/15 03:23:56;;;;;;;28.20;21.63;;;2.20;99.90;;;;;;5033716;28;20428;-72
2023/02/15 03:26:24;;;;;;;28.13;22.43;;;2.20;99.90;;;;;;5034883;28;20394;-73
2023/02/15 03:28:53;;;;;;;28.97;22.90;;;2.10;99.90;;;;;;5034705;28;20457;-73
2023/02/15 03:31:22;;;;;;;30.73;23.00;;;2.00;99.90;;;;;;5035419;28;20999;-72
2023/02/15 03:33:58;;;;;;;29.20;22.90;;;2.10;99.90;;;;;;5034057;28;20402;-73
2023/02/15 03:36:34;;;;;;;23.60;19.57;;;2.10;99.90;;;;;;5035128;28;20390;-73
2023/02/15 03:39:35;;;;;;;30.47;21.40;;;2.00;99.90;;;;;;5034571;28;20486;-73
2023/02/15 03:42:22;;;;;;;29.63;21.27;;;2.00;99.90;;;;;;5014824;28;20439;-73
2023/02/15 03:45:03;;;;;;;23.97;20.20;;;2.10;99.90;;;;;;5015312;28;20387;-73
2023/02/15 03:47:41;;;;;;;26.80;20.70;;;2.20;99.90;;;;;;5013739;28;20406;-74
2023/02/15 03:53:14;;;;;;;25.03;19.83;;;2.20;99.90;;;;;;5015652;28;20433;-74
2023/02/15 03:55:39;;;;;;;27.50;20.40;;;2.20;99.90;;;;;;5013335;28;20403;-74
2023/02/15 04:03:45;;;;;;;25.67;19.23;;;2.10;99.90;;;;;;5014921;28;20383;-74
2023/02/15 04:06:10;;;;;;;22.93;18.70;;;2.00;99.90;;;;;;5013289;28;20392;-74
2023/02/15 04:11:19;;;;;;;26.07;20.77;;;1.90;99.90;;;;;;5034954;28;20159;-73
2023/02/15 04:13:45;;;;;;;28.60;23.93;;;1.80;99.90;;;;;;5033065;28;20411;-74
2023/02/15 04:16:11;;;;;;;26.80;20.40;;;1.80;99.90;;;;;;5034507;28;20260;-74
2023/02/15 04:26:57;;;;;;;23.83;18.63;;;1.70;99.90;;;;;;5034988;28;20538;-74
2023/02/15 04:29:24;;;;;;;31.43;23.43;;;1.80;99.90;;;;;;5034553;28;20962;-74
2023/02/15 04:31:51;;;;;;;28.50;22.10;;;1.70;99.90;;;;;;5034579;28;20417;-74
2023/02/15 04:34:16;;;;;;;25.20;20.37;;;1.70;99.90;;;;;;5034437;28;20779;-74
2023/02/15 04:36:42;;;;;;;31.10;23.30;;;1.80;99.90;;;;;;5034465;28;20410;-74
2023/02/15 04:39:08;;;;;;;28.53;22.90;;;1.70;99.90;;;;;;5033489;28;20199;-74
2023/02/15 04:41:35;;;;;;;29.00;22.17;;;1.70;99.90;;;;;;5033805;28;20171;-73
2023/02/15 04:44:01;;;;;;;26.70;20.57;;;1.70;99.90;;;;;;5033681;28;20467;-74
2023/02/15 04:46:27;;;;;;;29.27;22.97;;;1.70;99.90;;;;;;5023496;28;20473;-73
2023/02/15 04:48:54;;;;;;;27.23;21.43;;;1.70;99.90;;;;;;5013603;28;20431;-73
2023/02/15 04:51:20;;;;;;;27.27;20.37;;;1.70;99.90;;;;;;5018786;28;20424;-73
2023/02/15 04:53:45;;;;;;;28.10;21.53;;;1.60;99.90;;;;;;5033733;28;20413;-74
2023/02/15 04:56:11;;;;;;;26.57;21.90;;;1.50;99.90;;;;;;5033460;28;20242;-74
2023/02/15 04:58:40;;;;;;;21.97;17.87;;;1.50;99.90;;;;;;5032232;28;20349;-74
2023/02/15 05:01:06;;;;;;;29.47;21.57;;;1.60;99.90;;;;;;5033731;28;20195;-73
2023/02/15 05:03:32;;;;;;;25.80;19.80;;;1.60;99.90;;;;;;5033332;28;20459;-73
2023/02/15 05:05:57;;;;;;;24.37;20.10;;;1.70;99.90;;;;;;5033562;28;20771;-72
2023/02/15 05:08:23;;;;;;;27.70;20.93;;;1.70;99.90;;;;;;5033546;28;20688;-73
2023/02/15 05:10:49;;;;;;;23.67;19.00;;;1.70;99.90;;;;;;5032991;28;20161;-73
2023/02/15 05:13:15;;;;;;;28.87;21.70;;;1.70;99.90;;;;;;5033095;28;20178;-73
2023/02/15 05:15:41;;;;;;;32.17;23.87;;;1.70;99.90;;;;;;5033765;28;20254;-75
2023/02/15 05:18:07;;;;;;;25.33;21.10;;;1.80;99.90;;;;;;5033327;28;20834;-74
2023/02/15 05:20:33;;;;;;;26.60;20.33;;;1.70;99.90;;;;;;5033544;28;20171;-73
2023/02/15 05:22:59;;;;;;;31.80;22.70;;;1.60;99.90;;;;;;5033221;28;20467;-74
2023/02/15 05:28:21;;;;;;;26.07;20.67;;;1.60;99.90;;;;;;5033133;28;20178;-74
2023/02/15 05:30:57;;;;;;;22.23;18.30;;;1.50;99.90;;;;;;5032946;28;20375;-74
2023/02/15 05:33:23;;;;;;;26.57;20.40;;;1.50;99.90;;;;;;5033172;28;20424;-75
2023/02/15 05:35:48;;;;;;;25.23;18.77;;;1.50;99.90;;;;;;5032874;28;20398;-75
2023/02/15 05:38:14;;;;;;;25.33;20.90;;;1.50;99.90;;;;;;5032748;28;20163;-75
2023/02/15 05:40:39;;;;;;;29.23;22.90;;;1.50;99.90;;;;;;5021848;28;20187;-74
2023/02/15 05:43:05;;;;;;;27.93;19.70;;;1.50;99.90;;;;;;5013180;28;20654;-74
2023/02/15 05:45:30;;;;;;;25.60;21.20;;;1.40;99.90;;;;;;5013383;28;20160;-74
2023/02/15 05:47:57;;;;;;;25.73;19.50;;;1.50;99.90;;;;;;5013171;28;20168;-77
2023/02/15 05:50:23;;;;;;;27.63;22.10;;;1.50;99.90;;;;;;5013374;28;20188;-71
2023/02/15 05:52:49;;;;;;;31.37;23.03;;;1.50;99.90;;;;;;5013102;28;20941;-71
2023/02/15 05:55:15;;;;;;;29.57;22.40;;;1.40;99.90;;;;;;5012380;28;20226;-72
2023/02/15 05:57:40;;;;;;;24.73;19.13;;;1.40;99.90;;;;;;5019451;28;20175;-71
2023/02/15 06:00:06;;;;;;;25.30;21.10;;;1.40;99.90;;;;;;5032417;28;20250;-72
2023/02/15 06:02:36;;;;;;;25.17;20.37;;;1.50;99.90;;;;;;5032129;28;20245;-72
2023/02/15 06:05:04;;;;;;;27.27;20.97;;;1.50;99.90;;;;;;5031018;28;20413;-71
2023/02/15 06:07:29;;;;;;;25.70;20.83;;;1.50;99.90;;;;;;5032465;28;20409;-72
2023/02/15 06:09:55;;;;;;;33.80;24.70;;;1.60;99.90;;;;;;5032075;28;20426;-70
2023/02/15 06:12:20;;;;;;;24.10;21.00;;;1.50;99.90;;;;;;5030973;28;20190;-72
2023/02/15 06:14:46;;;;;;;29.33;23.23;;;1.50;99.90;;;;;;5031434;28;20897;-70
2023/02/15 06:17:12;;;;;;;27.50;21.40;;;1.70;99.90;;;;;;5031984;28;20408;-71
2023/02/15 06:19:37;;;;;;;26.30;20.40;;;1.70;99.90;;;;;;5012709;28;20234;-69
2023/02/15 06:22:03;;;;;;;32.37;24.03;;;1.60;99.90;;;;;;5012913;28;20223;-69
2023/02/15 06:24:28;;;;;;;29.37;22.87;;;1.60;99.90;;;;;;5012094;28;20163;-69
2023/02/15 06:26:54;;;;;;;27.47;22.00;;;1.70;99.90;;;;;;5014180;28;20168;-69
2023/02/15 06:29:19;;;;;;;23.50;20.00;;;1.70;99.90;;;;;;5032542;28;20191;-69
2023/02/15 06:31:45;;;;;;;29.10;20.53;;;1.60;99.90;;;;;;5032189;28;20172;-69
2023/02/15 06:34:10;;;;;;;31.60;24.87;;;1.60;99.90;;;;;;5032350;28;20693;-70
2023/02/15 06:36:36;;;;;;;35.27;23.57;;;1.50;99.90;;;;;;5032510;28;20229;-69
2023/02/15 06:39:03;;;;;;;28.10;21.80;;;1.50;99.90;;;;;;5054917;23;20262;-70
2023/02/15 06:41:28;;;;;;;28.50;22.27;;;1.60;99.90;;;;;;5032701;28;20185;-70
2023/02/15 06:43:54;;;;;;;29.83;22.53;;;1.70;99.90;;;;;;5033584;28;20398;-71
2023/02/15 06:46:19;;;;;;;35.00;24.77;;;1.70;99.90;;;;;;5033228;28;20175;-71
2023/02/15 06:48:45;;;;;;;27.80;20.67;;;1.70;99.90;;;;;;5031615;28;20249;-72
2023/02/15 06:51:11;;;;;;;26.93;22.50;;;1.70;99.90;;;;;;5020900;28;20176;-71
2023/02/15 06:53:36;;;;;;;28.20;22.30;;;1.70;99.90;;;;;;5012895;28;20248;-73
2023/02/15 06:56:08;;;;;;;25.90;21.53;;;1.80;99.90;;;;;;5012726;28;20251;-70
2023/02/15 06:58:40;;;;;;;25.73;19.77;;;1.80;99.90;;;;;;5012855;28;20183;-71
2023/02/15 07:01:07;;;;;;;30.07;24.13;;;1.80;99.90;;;;;;5012933;28;20384;-70
2023/02/15 07:03:33;;;;;;;25.30;19.77;;;1.80;99.90;;;;;;5013416;28;20469;-72
2023/02/15 07:06:00;;;;;;;29.43;21.73;;;1.70;99.90;;;;;;5012869;28;20410;-70
2023/02/15 07:08:26;;;;;;;27.30;22.03;;;1.80;99.90;;;;;;5016571;28;20423;-71
2023/02/15 07:10:53;;;;;;;27.17;21.50;;;1.80;99.90;;;;;;5022382;28;20444;-72
2023/02/15 07:13:19;;;;;;;26.17;22.10;;;1.80;99.90;;;;;;5038568;28;20406;-71
2023/02/15 07:15:47;;;;;;;30.63;21.13;;;1.80;99.90;;;;;;5036444;28;20818;-71
2023/02/15 07:18:13;;;;;;;26.10;21.07;;;1.80;99.90;;;;;;5036700;28;20168;-71
2023/02/15 07:20:41;;;;;;;27.23;21.17;;;1.90;99.90;;;;;;5038167;28;20927;-71
2023/02/15 07:23:07;;;;;;;30.57;21.00;;;1.90;99.90;;;;;;5036207;28;20540;-71
2023/02/15 07:25:34;;;;;;;29.30;22.80;;;2.00;99.90;;;;;;5034177;28;20422;-71
2023/02/15 07:28:01;;;;;;;32.07;26.87;;;1.90;99.90;;;;;;5035717;28;20794;-71
2023/02/15 07:30:27;;;;;;;29.30;22.93;;;2.00;99.90;;;;;;5036018;28;20448;-72
2023/02/15 07:35:51;;;;;;;51.67;34.40;;;1.90;99.90;;;;;;5035467;28;20440;-73
2023/02/15 07:38:17;;;;;;;32.43;24.50;;;1.90;99.90;;;;;;5036141;28;20393;-72
2023/02/15 07:40:43;;;;;;;31.17;23.13;;;1.70;99.90;;;;;;5035294;28;20461;-72
2023/02/15 07:43:09;;;;;;;30.20;22.50;;;1.40;99.90;;;;;;5035626;28;20773;-73
2023/02/15 07:45:35;;;;;;;31.90;25.40;;;1.50;99.90;;;;;;5035438;28;20438;-73
2023/02/15 07:48:01;;;;;;;30.73;23.80;;;1.60;99.90;;;;;;5019333;28;20482;-72
2023/02/15 07:50:27;;;;;;;33.27;24.30;;;1.80;99.90;;;;;;5015515;28;20192;-72
2023/02/15 07:52:52;;;;;;;29.07;22.50;;;1.80;99.90;;;;;;5015634;28;20736;-71
2023/02/15 07:55:18;;;;;;;36.00;23.50;;;1.90;99.90;;;;;;5015001;28;20175;-70
2023/02/15 07:57:45;;;;;;;32.60;23.43;;;2.00;99.90;;;;;;5015180;28;20175;-71
2023/02/15 08:00:16;;;;;;;32.20;24.37;;;2.00;99.90;;;;;;5013737;28;20470;-71
2023/02/15 08:02:41;;;;;;;36.30;24.43;;;2.10;99.90;;;;;;5015474;28;20394;-71
2023/02/15 08:05:07;;;;;;;31.60;24.80;;;2.20;99.90;;;;;;5015295;28;21212;-72
2023/02/15 08:07:33;;;;;;;34.00;24.97;;;2.20;99.90;;;;;;5015075;28;20192;-73
2023/02/15 08:10:01;;;;;;;35.77;24.93;;;2.20;99.90;;;;;;5015013;28;20431;-71
2023/02/15 08:12:27;;;;;;;28.80;22.60;;;2.40;99.90;;;;;;5033646;28;20182;-71
2023/02/15 08:14:53;;;;;;;33.43;23.13;;;2.40;99.90;;;;;;5035200;28;20505;-72
2023/02/15 08:17:18;;;;;;;32.47;21.90;;;2.30;99.90;;;;;;5035077;28;20265;-71
2023/02/15 08:19:46;;;;;;;30.90;22.30;;;2.20;99.90;;;;;;5034589;28;20206;-71
2023/02/15 08:22:13;;;;;;;31.87;24.03;;;1.90;99.90;;;;;;5035011;28;20187;-72
2023/02/15 08:24:39;;;;;;;33.17;24.37;;;1.90;99.90;;;;;;5034301;28;20405;-72
2023/02/15 08:27:07;;;;;;;31.17;23.87;;;2.10;99.90;;;;;;5035154;28;20418;-73
2023/02/15 08:29:34;;;;;;;32.43;24.50;;;2.10;99.90;;;;;;5034445;28;20438;-72
2023/02/15 08:32:03;;;;;;;34.33;23.30;;;2.10;99.90;;;;;;5033180;28;20476;-71
2023/02/15 08:34:34;;;;;;;30.83;23.70;;;2.20;99.90;;;;;;5034542;28;20575;-73
2023/02/15 08:37:00;;;;;;;32.33;23.37;;;2.30;99.90;;;;;;5033666;28;20440;-70
2023/02/15 08:39:26;;;;;;;39.00;25.00;;;2.20;99.90;;;;;;5033976;28;20537;-73
2023/02/15 08:41:51;;;;;;;33.43;24.90;;;2.40;99.90;;;;;;5034110;28;20417;-71
2023/02/15 08:44:18;;;;;;;33.60;24.83;;;2.50;99.90;;;;;;5032862;28;20414;-72
2023/02/15 08:46:46;;;;;;;32.70;26.17;;;2.20;99.90;;;;;;5019749;28;20172;-72
2023/02/15 08:49:16;;;;;;;32.20;24.20;;;2.00;99.90;;;;;;5014225;28;20419;-72
2023/02/15 08:51:42;;;;;;;33.10;24.87;;;2.20;99.90;;;;;;5014287;28;20482;-71
2023/02/15 08:54:10;;;;;;;35.40;26.77;;;2.20;99.90;;;;;;5014195;28;20999;-71
2023/02/15 08:56:38;;;;;;;32.90;24.70;;;2.00;99.90;;;;;;5014045;28;20403;-72
2023/02/15 08:59:04;;;;;;;33.63;26.27;;;1.90;99.90;;;;;;5014025;28;20465;-73
2023/02/15 09:01:32;;;;;;;35.77;26.63;;;2.00;99.90;;;;;;5013707;28;20837;-71
2023/02/15 09:04:04;;;;;;;37.83;29.40;;;2.10;99.90;;;;;;5013914;28;20410;-71
2023/02/15 09:06:29;;;;;;;33.43;26.20;;;2.20;99.90;;;;;;5012367;28;20420;-71
2023/02/15 09:08:56;;;;;;;33.10;27.53;;;2.50;99.90;;;;;;5012249;28;20411;-71
2023/02/15 09:11:24;;;;;;;33.33;26.00;;;2.60;99.90;;;;;;5022941;28;20194;-71
2023/02/15 09:13:54;;;;;;;37.20;27.40;;;2.80;99.90;;;;;;5033418;28;20464;-72
2023/02/15 09:16:21;;;;;;;35.43;29.00;;;3.00;99.90;;;;;;5033858;28;20497;-72
2023/02/15 09:18:47;;;;;;;37.27;30.00;;;3.20;99.90;;;;;;5033148;28;20465;-72
2023/02/15 09:21:16;;;;;;;34.87;26.63;;;3.40;99.90;;;;;;5033458;28;20501;-72
2023/02/15 09:23:43;;;;;;;30.87;24.87;;;3.40;99.90;;;;;;5032420;28;20398;-71
2023/02/15 09:26:14;;;;;;;34.80;26.90;;;3.30;99.90;;;;;;5033250;28;20872;-71
2023/02/15 09:28:40;;;;;;;34.17;26.37;;;3.30;99.90;;;;;;5033280;28;20476;-71
2023/02/15 09:31:20;;;;;;;34.97;27.20;;;3.10;99.90;;;;;;5032969;28;20475;-71
2023/02/15 09:33:47;;;;;;;33.20;25.60;;;2.70;99.90;;;;;;5031419;28;20631;-71
2023/02/15 09:36:25;;;;;;;32.70;26.60;;;2.70;99.90;;;;;;5033050;28;20775;-70
2023/02/15 09:38:59;;;;;;;28.17;22.80;;;2.90;99.90;;;;;;5032963;28;20453;-71
2023/02/15 09:41:55;;;;;;;36.80;26.50;;;3.20;99.90;;;;;;5031782;28;20960;-71
2023/02/15 09:44:58;;;;;;;29.20;24.67;;;3.60;99.90;;;;;;5014571;28;20772;-72
2023/02/15 09:48:01;;;;;;;31.27;25.87;;;3.70;99.90;;;;;;5012893;28;20522;-72
2023/02/15 09:50:46;;;;;;;34.17;25.40;;;3.80;99.90;;;;;;5013216;28;20434;-71
2023/02/15 09:53:37;;;;;;;33.67;24.73;;;3.80;99.90;;;;;;5013691;28;20470;-71
2023/02/15 09:56:06;;;;;;;33.80;27.27;;;3.70;99.90;;;;;;5012958;28;20395;-71
2023/02/15 09:58:40;;;;;;;39.70;26.63;;;3.50;99.90;;;;;;5012930;28;20431;-71
2023/02/15 10:01:34;;;;;;;33.13;25.10;;;3.50;99.90;;;;;;5013767;28;20557;-71
2023/02/15 10:04:06;;;;;;;34.93;26.60;;;3.50;99.90;;;;;;5013475;28;20379;-70
2023/02/15 10:07:14;;;;;;;32.30;24.60;;;3.60;99.90;;;;;;5013203;28;20434;-73
2023/02/15 10:10:04;;;;;;;34.40;25.50;;;3.80;99.90;;;;;;5011637;28;20430;-71
2023/02/15 10:12:42;;;;;;;32.87;25.10;;;3.80;99.90;;;;;;5031975;28;20465;-72
2023/02/15 10:15:50;;;;;;;33.33;24.13;;;3.70;99.90;;;;;;5031512;28;20402;-71
2023/02/15 10:18:34;;;;;;;31.23;26.40;;;3.80;99.90;;;;;;5018946;28;20422;-70
2023/02/15 10:21:10;;;;;;;37.37;26.13;;;4.00;99.90;;;;;;5031161;28;20430;-71
2023/02/15 10:24:06;;;;;;;29.60;25.23;;;4.20;99.90;;;;;;5032833;28;20531;-69
2023/02/15 10:26:41;;;;;;;33.90;25.10;;;4.30;99.90;;;;;;5032256;28;20477;-70
2023/02/15 10:29:16;;;;;;;33.43;25.60;;;4.30;99.90;;;;;;5031263;28;20429;-70
2023/02/15 10:31:59;;;;;;;32.00;25.13;;;4.40;99.90;;;;;;5032869;28;20730;-71
2023/02/15 10:34:37;;;;;;;34.97;27.83;;;4.40;99.90;;;;;;5032575;28;20765;-69
2023/02/15 10:37:32;;;;;;;32.90;25.77;;;4.50;99.90;;;;;;5031312;28;20410;-71
2023/02/15 10:40:05;;;;;;;33.07;25.13;;;4.50;99.90;;;;;;5030958;28;20604;-72
2023/02/15 10:42:39;;;;;;;34.23;24.73;;;4.50;99.90;;;;;;5023812;28;20502;-70
2023/02/15 10:45:23;;;;;;;33.60;24.63;;;4.60;99.90;;;;;;5015240;28;20477;-73
2023/02/15 10:47:58;;;;;;;33.90;25.37;;;4.80;99.90;;;;;;5017102;28;20402;-72
2023/02/15 10:50:37;;;;;;;34.47;27.63;;;4.70;99.90;;;;;;5017644;28;20465;-73
2023/02/15 10:53:23;;;;;;;31.93;25.63;;;4.70;99.90;;;;;;5017912;28;20391;-71
2023/02/15 10:56:12;;;;;;;30.90;23.40;;;5.10;99.90;;;;;;5017489;28;20411;-73
2023/02/15 10:58:41;;;;;;;27.87;24.20;;;5.40;99.90;;;;;;5017895;28;20473;-71
2023/02/15 11:01:35;;;;;;;36.70;26.33;;;5.60;99.90;;;;;;5015163;28;20785;-72
2023/02/15 11:04:14;;;;;;;29.83;25.70;;;5.70;99.90;;;;;;5016682;28;20453;-72
2023/02/15 11:06:48;;;;;;;36.07;26.23;;;5.80;99.90;;;;;;5016217;28;20383;-72
2023/02/15 11:09:17;;;;;;;33.73;25.30;;;5.70;99.90;;;;;;5014419;28;20446;-73
2023/02/15 11:11:48;;;;;;;36.43;26.80;;;5.80;99.90;;;;;;5014717;28;20415;-73
2023/02/15 11:15:11;;;;;;;34.03;25.20;;;5.80;99.90;;;;;;5016079;28;20391;-71
2023/02/15 11:17:42;;;;;;;35.07;25.37;;;6.30;99.90;;;;;;4975119;28;20550;-70
2023/02/15 11:20:37;;;;;;;26.43;23.37;;;8.00;99.90;;;;;;4959432;28;21000;-71
2023/02/15 11:23:18;;;;;;;33.50;23.50;;;10.00;99.90;;;;;;5003336;28;20407;-72
2023/02/15 11:25:52;;;;;;;32.33;25.30;;;12.30;99.90;;;;;;5015270;28;20470;-69
2023/02/15 11:28:24;;;;;;;27.20;22.00;;;13.50;97.90;;;;;;5016278;28;20467;-70
2023/02/15 11:30:55;;;;;;;29.17;24.00;;;13.50;96.90;;;;;;5015484;28;20436;-73
2023/02/15 11:33:29;;;;;;;26.67;23.47;;;13.00;96.70;;;;;;5015771;28;20933;-71
2023/02/15 11:36:04;;;;;;;26.77;23.40;;;12.20;97.80;;;;;;5018049;28;20468;-72
2023/02/15 11:38:32;;;;;;;26.57;22.60;;;13.50;97.50;;;;;;5016000;28;20394;-72
2023/02/15 11:41:11;;;;;;;28.37;22.87;;;15.00;95.70;;;;;;5021192;28;20511;-72
2023/02/15 11:43:49;;;;;;;26.43;22.40;;;16.70;91.30;;;;;;5035363;28;20459;-73
2023/02/15 11:46:15;;;;;;;28.00;22.13;;;17.80;88.40;;;;;;5035295;28;20444;-71
2023/02/15 11:48:42;;;;;;;23.73;20.40;;;17.30;85.40;;;;;;5034886;28;20398;-70
2023/02/15 11:51:20;;;;;;;25.63;21.50;;;16.80;85.70;;;;;;5035208;28;20199;-73
2023/02/15 11:53:46;;;;;;;26.93;23.40;;;16.00;87.30;;;;;;5034836;28;20382;-74
2023/02/15 11:56:22;;;;;;;24.30;21.77;;;16.00;87.20;;;;;;5035181;28;20409;-71
2023/02/15 11:59:03;;;;;;;24.70;21.80;;;15.90;86.80;;;;;;5034906;28;20473;-71
2023/02/15 12:01:40;;;;;;;23.13;20.63;;;16.40;85.70;;;;;;5035327;28;20390;-71
2023/02/15 12:04:34;;;;;;;24.07;20.73;;;17.60;84.20;;;;;;5033765;28;20489;-73
2023/02/15 12:07:33;;;;;;;31.43;22.63;;;17.60;81.70;;;;;;5034904;28;20958;-70
2023/02/15 12:10:16;;;;;;;24.13;21.70;;;17.40;81.90;;;;;;5034508;28;20429;-70
2023/02/15 12:12:42;;;;;;;23.63;21.20;;;16.30;85.30;;;;;;5033560;28;20406;-70
2023/02/15 12:15:11;;;;;;;23.87;21.47;;;17.70;82.60;;;;;;5035356;28;20923;-71
2023/02/15 12:17:52;;;;;;;24.23;21.73;;;16.80;81.70;;;;;;5033379;28;20201;-72
2023/02/15 12:20:17;;;;;;;25.77;21.80;;;18.40;80.20;;;;;;5034428;28;20556;-71
2023/02/15 12:23:02;;;;;;;27.20;22.37;;;20.20;75.70;;;;;;5033210;28;20496;-72
2023/02/15 12:25:41;;;;;;;21.93;19.67;;;21.40;70.40;;;;;;5034534;28;20657;-72
2023/02/15 12:28:31;;;;;;;24.17;21.53;;;22.60;66.30;;;;;;5034885;28;20421;-72
2023/02/15 12:30:57;;;;;;;24.13;21.83;;;22.50;62.10;;;;;;5033280;28;20475;-72
2023/02/15 12:33:43;;;;;;;23.23;20.00;;;19.80;67.10;;;;;;5034455;28;20749;-72
2023/02/15 12:36:34;;;;;;;22.33;20.20;;;18.90;70.40;;;;;;5017635;28;20497;-71
2023/02/15 12:41:34;;;;;;;27.23;22.97;;;18.70;73.20;;;;;;5012908;28;20467;-70
2023/02/15 12:44:23;;;;;;;24.80;21.83;;;17.80;71.40;;;;;;5033491;28;20410;-71
2023/02/15 12:47:05;;;;;;;22.50;20.10;;;18.50;72.80;;;;;;5019238;28;20183;-70
2023/02/15 12:49:36;;;;;;;23.13;20.90;;;20.40;68.40;;;;;;4997537;28;20494;-70
2023/02/15 12:52:07;;;;;;;24.30;21.50;;;22.00;65.80;;;;;;5014851;28;20387;-71
2023/02/15 12:54:40;;;;;;;26.70;24.03;;;22.00;63.50;;;;;;5014320;28;20384;-69
2023/02/15 12:57:29;;;;;;;23.43;20.90;;;22.50;62.90;;;;;;5014365;28;20747;-72
2023/02/15 13:00:17;;;;;;;29.00;22.80;;;22.40;61.20;;;;;;5013670;28;20459;-72
2023/02/15 13:02:51;;;;;;;27.00;22.77;;;20.00;63.70;;;;;;5014056;28;20832;-71
2023/02/15 13:05:33;;;;;;;26.93;22.67;;;19.40;68.00;;;;;;4994982;28;20427;-70
2023/02/15 13:08:13;;;;;;;25.67;21.58;;;18.50;69.10;;;;;;5012742;28;20486;-70
2023/02/15 13:10:40;;;;;;;24.00;21.60;;;18.60;70.80;;;;;;5013442;28;20226;-70
2023/02/15 13:13:11;;;;;;;25.90;22.50;;;19.40;68.60;;;;;;5013670;28;20413;-70
2023/02/15 13:15:40;;;;;;;26.30;23.53;;;20.30;67.30;;;;;;4995825;28;20934;-71
2023/02/15 13:18:13;;;;;;;25.03;21.93;;;20.20;64.80;;;;;;5014114;28;20461;-71
2023/02/15 13:20:41;;;;;;;26.17;22.40;;;19.90;68.60;;;;;;5013589;28;20459;-72
2023/02/15 13:23:27;;;;;;;26.07;21.13;;;21.70;65.30;;;;;;5014077;28;20399;-72
2023/02/15 13:25:55;;;;;;;23.13;20.80;;;23.40;62.20;;;;;;5013432;28;20383;-72
2023/02/15 13:28:35;;;;;;;25.17;22.73;;;23.40;60.80;;;;;;5013691;28;20410;-71
2023/02/15 13:31:01;;;;;;;24.43;22.13;;;20.60;63.90;;;;;;5013678;28;20430;-70
2023/02/15 13:33:37;;;;;;;26.03;21.40;;;20.70;63.80;;;;;;5013942;28;20422;-70